Time,TemperatureF,DewpointF,PressureIn,WindDirection,WindDirectionDegrees,WindSpeedMPH,WindSpeedGustMPH,Humidity,HourlyPrecipIn,Conditions,Clouds,dailyrainin,SoftwareType,DateUTC
2013-08-10 00:00:00,84.4,78.7,29.92,East,101,3.0,10.0,83,0.00,RA,,0.00,WeatherDisplay:10.37,2013-08-10 06:00:00,
2013-08-10 00:15:00,84.3,78.2,29.92,East,95,9.0,14.0,82,0.00,CLR,,0.00,WeatherDisplay:10.37,2013-08-10 06:15:00,
2013-08-10 00:30:00,83.8,78.1,29.91,East,100,5.0,14.0,83,0.00,CLR,,0.00,WeatherDisplay:10.37,2013-08-10 06:30:00,
2013-08-10 00:45:00,84.4,78.7,29.91,East,99,9.0,15.0,83,0.00,CLR,,0.00,WeatherDisplay:10.37,2013-08-10 06:45:00,
2013-08-10 01:00:00,84.3,77.8,29.91,ESE,115,12.0,13.0,81,0.00,CLR,,0.00,WeatherDisplay:10.37,2013-08-10 07:00:00,
2013-08-10 01:15:00,84.4,78.3,29.91,ESE,112,7.0,14.0,82,0.00,CLR,,0.00,WeatherDisplay:10.37,2013-08-10 07:15:00,
2013-08-10 01:30:00,84.3,78.6,29.90,ESE,113,7.0,12.0,83,0.00,CLR,,0.00,WeatherDisplay:10.37,2013-08-10 07:30:00,
2013-08-10 01:45:00,84.2,78.1,29.90,ESE,103,9.0,12.0,82,0.00,CLR,,0.00,WeatherDisplay:10.37,2013-08-10 07:45:00,
2013-08-10 02:00:00,83.7,78.4,29.90,ESE,119,12.0,19.0,84,0.00,CLR,,0.00,WeatherDisplay:10.37,2013-08-10 08:00:00,
2013-08-10 02:15:00,82.7,77.7,29.89,ESE,114,15.0,20.0,85,0.00,CLR,,0.00,WeatherDisplay:10.37,2013-08-10 08:15:00,
2013-08-10 02:30:00,82.9,76.1,29.89,ESE,115,9.0,15.0,80,0.00,CLR,,0.00,WeatherDisplay:10.37,2013-08-10 08:30:00,
2013-08-10 02:45:00,83.2,75.6,29.89,ESE,119,9.0,14.0,78,0.00,CLR,,0.00,WeatherDisplay:10.37,2013-08-10 08:45:00,
2013-08-10 03:00:00,83.4,76.6,29.89,ESE,113,7.0,13.0,80,0.00,CLR,,0.00,WeatherDisplay:10.37,2013-08-10 09:00:00,
2013-08-10 03:15:00,83.6,77.8,29.89,ESE,109,3.0,10.0,83,0.00,CLR,,0.00,WeatherDisplay:10.37,2013-08-10 09:15:00,
2013-08-10 03:30:00,83.7,78.0,29.89,ESE,108,6.0,12.0,83,0.00,CLR,,0.00,WeatherDisplay:10.37,2013-08-10 09:30:00,
2013-08-10 03:45:00,83.7,78.3,29.89,East,98,6.0,15.0,84,0.00,CLR,,0.00,WeatherDisplay:10.37,2013-08-10 09:45:00,
2013-08-10 04:00:00,83.7,78.0,29.89,ESE,111,9.0,14.0,83,0.00,CLR,,0.00,WeatherDisplay:10.37,2013-08-10 10:00:00,
2013-08-10 04:15:00,84.1,77.3,29.90,ESE,103,9.0,15.0,80,0.00,CLR,,0.00,WeatherDisplay:10.37,2013-08-10 10:15:00,
2013-08-10 04:30:00,84.0,77.9,29.90,ESE,110,12.0,15.0,82,0.00,CLR,,0.00,WeatherDisplay:10.37,2013-08-10 10:30:00,
2013-08-10 04:45:00,83.9,78.2,29.90,ESE,117,10.0,13.0,83,0.00,CLR,,0.00,WeatherDisplay:10.37,2013-08-10 10:45:00,
2013-08-10 05:00:00,83.6,77.5,29.89,East,98,8.0,15.0,82,0.00,CLR,,0.00,WeatherDisplay:10.37,2013-08-10 11:00:00,
2013-08-10 05:15:00,83.8,78.1,29.89,ESE,109,10.0,16.0,83,0.00,CLR,,0.00,WeatherDisplay:10.37,2013-08-10 11:15:00,
2013-08-10 05:30:00,83.9,78.2,29.89,ESE,111,8.0,15.0,83,0.00,CLR,,0.00,WeatherDisplay:10.37,2013-08-10 11:30:00,
2013-08-10 05:45:00,84.1,78.4,29.89,ESE,117,13.0,16.0,83,0.00,CLR,,0.00,WeatherDisplay:10.37,2013-08-10 11:45:00,
2013-08-10 06:00:00,84.3,78.6,29.89,ESE,114,10.0,16.0,83,0.00,CLR,,0.00,WeatherDisplay:10.37,2013-08-10 12:00:00,
2013-08-10 06:15:00,84.3,77.8,29.90,ESE,115,13.0,18.0,81,0.00,CLR,,0.00,WeatherDisplay:10.37,2013-08-10 12:15:00,
2013-08-10 06:30:00,84.5,78.0,29.90,ESE,115,14.0,18.0,81,0.00,CLR,,0.00,WeatherDisplay:10.37,2013-08-10 12:30:00,
2013-08-10 06:45:00,84.6,77.4,29.91,ESE,112,13.0,16.0,79,0.00,CLR,,0.00,WeatherDisplay:10.37,2013-08-10 12:45:00,
2013-08-10 07:00:00,84.8,78.4,29.91,ESE,117,12.0,16.0,81,0.00,CLR,,0.00,WeatherDisplay:10.37,2013-08-10 13:00:00,
2013-08-10 07:15:00,84.9,77.6,29.91,ESE,116,13.0,15.0,79,0.00,CLR,,0.00,WeatherDisplay:10.37,2013-08-10 13:15:00,
2013-08-10 07:30:00,85.4,78.9,29.91,ESE,115,13.0,16.0,81,0.00,CLR,,0.00,WeatherDisplay:10.37,2013-08-10 13:30:00,
2013-08-10 07:45:00,86.0,78.3,29.92,ESE,119,14.0,16.0,78,0.00,CLR,,0.00,WeatherDisplay:10.37,2013-08-10 13:45:00,
2013-08-10 08:00:00,85.7,78.5,29.92,ESE,121,12.0,16.0,79,0.00,CLR,,0.00,WeatherDisplay:10.37,2013-08-10 14:00:00,
2013-08-10 08:15:00,86.2,77.7,29.92,ESE,118,14.0,18.0,76,0.00,CLR,,0.00,WeatherDisplay:10.37,2013-08-10 14:15:00,
2013-08-10 08:30:00,86.2,79.0,29.92,ESE,122,13.0,15.0,79,0.00,CLR,,0.00,WeatherDisplay:10.37,2013-08-10 14:30:00,
2013-08-10 08:45:00,86.5,78.0,29.92,SE,124,14.0,16.0,76,0.00,CLR,,0.00,WeatherDisplay:10.37,2013-08-10 14:45:00,
2013-08-10 09:00:00,86.6,78.2,29.92,ESE,123,13.0,15.0,76,0.00,CLR,,0.00,WeatherDisplay:10.37,2013-08-10 15:00:00,
2013-08-10 09:15:00,87.2,78.3,29.92,ESE,123,13.0,16.0,75,0.00,CLR,,0.00,WeatherDisplay:10.37,2013-08-10 15:15:00,
2013-08-10 09:30:00,87.2,79.1,29.92,ESE,122,13.0,18.0,77,0.00,CLR,,0.00,WeatherDisplay:10.37,2013-08-10 15:30:00,
2013-08-10 09:45:00,87.1,79.0,29.93,ESE,123,12.0,15.0,77,0.00,CLR,,0.00,WeatherDisplay:10.37,2013-08-10 15:45:00,
2013-08-10 10:00:00,87.4,78.9,29.93,ESE,116,13.0,16.0,76,0.00,CLR,,0.00,WeatherDisplay:10.37,2013-08-10 16:00:00,
2013-08-10 10:15:00,87.3,78.0,29.93,ESE,121,13.0,18.0,74,0.00,CLR,,0.00,WeatherDisplay:10.37,2013-08-10 16:15:00,
2013-08-10 10:30:00,87.6,78.7,29.93,ESE,118,12.0,16.0,75,0.00,CLR,,0.00,WeatherDisplay:10.37,2013-08-10 16:30:00,
2013-08-10 10:45:00,87.5,77.8,29.94,ESE,121,14.0,16.0,73,0.00,CLR,,0.00,WeatherDisplay:10.37,2013-08-10 16:45:00,
2013-08-10 11:00:00,87.2,78.7,29.94,ESE,119,12.0,14.0,76,0.00,CLR,,0.00,WeatherDisplay:10.37,2013-08-10 17:00:00,
2013-08-10 11:15:00,87.3,78.8,29.93,ESE,117,12.0,15.0,76,0.00,CLR,,0.00,WeatherDisplay:10.37,2013-08-10 17:15:00,
2013-08-10 11:30:00,86.9,78.0,29.93,ESE,116,12.0,15.0,75,0.00,CLR,,0.00,WeatherDisplay:10.37,2013-08-10 17:30:00,
2013-08-10 11:45:00,87.1,79.0,29.93,ESE,119,10.0,14.0,77,0.00,CLR,,0.00,WeatherDisplay:10.37,2013-08-10 17:45:00,
2013-08-10 12:00:00,87.3,78.4,29.93,ESE,117,10.0,13.0,75,0.00,CLR,,0.00,WeatherDisplay:10.37,2013-08-10 18:00:00,
2013-08-10 12:15:00,87.2,78.7,29.93,ESE,115,12.0,14.0,76,0.00,CLR,,0.00,WeatherDisplay:10.37,2013-08-10 18:15:00,
2013-08-10 12:30:00,87.1,78.2,29.93,ESE,118,12.0,13.0,75,0.00,CLR,,0.00,WeatherDisplay:10.37,2013-08-10 18:30:00,
2013-08-10 12:45:00,87.3,78.8,29.93,ESE,110,9.0,13.0,76,0.00,CLR,,0.00,WeatherDisplay:10.37,2013-08-10 18:45:00,
2013-08-10 13:00:00,87.0,78.9,29.93,ESE,111,10.0,14.0,77,0.00,CLR,,0.00,WeatherDisplay:10.37,2013-08-10 19:00:00,
2013-08-10 13:15:00,87.2,79.5,29.92,ESE,104,10.0,14.0,78,0.00,CLR,,0.00,WeatherDisplay:10.37,2013-08-10 19:15:00,
2013-08-10 13:30:00,87.3,79.2,29.91,ESE,108,12.0,15.0,77,0.00,CLR,,0.00,WeatherDisplay:10.37,2013-08-10 19:30:00,
2013-08-10 13:45:00,87.4,79.3,29.91,ESE,116,12.0,15.0,77,0.00,CLR,,0.00,WeatherDisplay:10.37,2013-08-10 19:45:00,
2013-08-10 14:00:00,87.7,79.6,29.90,ESE,118,12.0,14.0,77,0.00,CLR,,0.00,WeatherDisplay:10.37,2013-08-10 20:00:00,
2013-08-10 14:15:00,87.5,80.2,29.90,ESE,108,9.0,14.0,79,0.00,CLR,,0.00,WeatherDisplay:10.37,2013-08-10 20:15:00,
2013-08-10 14:30:00,87.2,78.3,29.90,ESE,119,12.0,16.0,75,0.00,CLR,,0.00,WeatherDisplay:10.37,2013-08-10 20:30:00,
2013-08-10 14:45:00,87.0,78.1,29.90,ESE,120,14.0,15.0,75,0.00,CLR,,0.00,WeatherDisplay:10.37,2013-08-10 20:45:00,
2013-08-10 15:00:00,87.3,79.6,29.89,ESE,110,7.0,14.0,78,0.00,CLR,,0.00,WeatherDisplay:10.37,2013-08-10 21:00:00,
2013-08-10 15:15:00,87.0,78.9,29.89,ESE,113,9.0,14.0,77,0.00,CLR,,0.00,WeatherDisplay:10.37,2013-08-10 21:15:00,
2013-08-10 15:30:00,86.9,78.0,29.89,ESE,114,12.0,14.0,75,0.00,CLR,,0.00,WeatherDisplay:10.37,2013-08-10 21:30:00,
2013-08-10 15:45:00,87.0,78.9,29.89,ESE,116,10.0,14.0,77,0.00,CLR,,0.00,WeatherDisplay:10.37,2013-08-10 21:45:00,
2013-08-10 16:00:00,86.6,78.2,29.88,ESE,114,10.0,13.0,76,0.00,CLR,,0.00,WeatherDisplay:10.37,2013-08-10 22:00:00,
2013-08-10 16:15:00,86.7,79.1,29.88,ESE,104,7.0,13.0,78,0.00,CLR,,0.00,WeatherDisplay:10.37,2013-08-10 22:15:00,
2013-08-10 16:26:00,86.7,79.0,29.88,East,101,7.0,13.0,78,0.00,CLR,,0.00,WeatherDisplay:10.37,2013-08-10 22:26:00,
2013-08-10 16:45:00,86.6,79.3,29.88,ESE,102,7.0,13.0,79,0.00,CLR,,0.00,WeatherDisplay:10.37,2013-08-10 22:45:00,
2013-08-10 17:00:00,86.2,78.9,29.89,ESE,109,7.0,12.0,79,0.00,CLR,,0.00,WeatherDisplay:10.37,2013-08-10 23:00:00,
2013-08-10 17:15:00,86.0,78.7,29.89,East,99,3.0,12.0,79,0.00,CLR,,0.00,WeatherDisplay:10.37,2013-08-10 23:15:00,
2013-08-10 17:30:00,85.8,78.9,29.90,East,89,7.0,13.0,80,0.00,CLR,,0.00,WeatherDisplay:10.37,2013-08-10 23:30:00,
2013-08-10 17:45:00,85.2,79.1,29.90,East,93,5.0,15.0,82,0.00,CLR,,0.00,WeatherDisplay:10.37,2013-08-10 23:45:00,
2013-08-10 18:00:00,85.0,78.1,29.90,East,97,8.0,15.0,80,0.00,CLR,,0.00,WeatherDisplay:10.37,2013-08-11 00:00:00,
2013-08-10 18:15:00,85.1,77.8,29.90,East,88,3.0,14.0,79,0.00,CLR,,0.00,WeatherDisplay:10.37,2013-08-11 00:15:00,
2013-08-10 18:30:00,84.8,78.3,29.90,East,93,9.0,15.0,81,0.00,CLR,,0.00,WeatherDisplay:10.37,2013-08-11 00:30:00,
2013-08-10 18:45:00,84.7,79.0,29.91,East,84,10.0,15.0,83,0.00,CLR,,0.00,WeatherDisplay:10.37,2013-08-11 00:45:00,
2013-08-10 19:00:00,84.6,78.5,29.91,East,88,13.0,15.0,82,0.00,CLR,,0.00,WeatherDisplay:10.37,2013-08-11 01:00:00,
2013-08-10 19:15:00,84.7,78.6,29.92,East,84,12.0,16.0,82,0.00,CLR,,0.00,WeatherDisplay:10.37,2013-08-11 01:15:00,
2013-08-10 19:30:00,84.8,78.7,29.92,East,88,12.0,18.0,82,0.00,CLR,,0.00,WeatherDisplay:10.37,2013-08-11 01:30:00,
2013-08-10 19:45:00,84.8,78.3,29.93,East,83,12.0,16.0,81,0.00,CLR,,0.00,WeatherDisplay:10.37,2013-08-11 01:45:00,
2013-08-10 20:00:00,84.7,77.8,29.93,East,80,9.0,16.0,80,0.00,CLR,,0.00,WeatherDisplay:10.37,2013-08-11 02:00:00,
2013-08-10 20:15:00,84.7,78.6,29.94,East,81,8.0,16.0,82,0.00,CLR,,0.00,WeatherDisplay:10.37,2013-08-11 02:15:00,
2013-08-10 20:30:00,84.6,78.9,29.94,East,81,9.0,14.0,83,0.00,CLR,,0.00,WeatherDisplay:10.37,2013-08-11 02:30:00,
2013-08-10 20:45:00,84.5,77.6,29.94,East,89,13.0,16.0,80,0.00,CLR,,0.00,WeatherDisplay:10.37,2013-08-11 02:45:00,
2013-08-10 21:00:00,84.5,77.3,29.95,East,86,10.0,15.0,79,0.00,CLR,,0.00,WeatherDisplay:10.37,2013-08-11 03:00:00,
2013-08-10 21:15:00,84.7,77.8,29.96,East,83,9.0,16.0,80,0.00,CLR,,0.00,WeatherDisplay:10.37,2013-08-11 03:15:00,
2013-08-10 21:30:00,84.8,77.9,29.96,East,87,12.0,19.0,80,0.00,CLR,,0.00,WeatherDisplay:10.37,2013-08-11 03:30:00,
2013-08-10 21:45:00,84.8,78.3,29.96,East,83,8.0,16.0,81,0.00,CLR,,0.00,WeatherDisplay:10.37,2013-08-11 03:45:00,
2013-08-10 22:00:00,84.7,78.6,29.97,East,89,10.0,15.0,82,0.00,CLR,,0.00,WeatherDisplay:10.37,2013-08-11 04:00:00,
2013-08-10 22:15:00,84.6,77.7,29.96,East,83,8.0,15.0,80,0.00,CLR,,0.00,WeatherDisplay:10.37,2013-08-11 04:15:00,
2013-08-10 22:30:00,84.6,78.5,29.96,East,81,10.0,16.0,82,0.00,CLR,,0.00,WeatherDisplay:10.37,2013-08-11 04:30:00,
2013-08-10 22:45:00,84.6,78.1,29.95,East,85,12.0,15.0,81,0.00,CLR,,0.00,WeatherDisplay:10.37,2013-08-11 04:45:00,
2013-08-10 23:00:00,84.6,77.7,29.95,East,85,14.0,16.0,80,0.00,CLR,,0.00,WeatherDisplay:10.37,2013-08-11 05:00:00,
2013-08-10 23:15:00,84.7,77.8,29.95,ENE,73,13.0,15.0,80,0.00,CLR,,0.00,WeatherDisplay:10.37,2013-08-11 05:15:00,
2013-08-10 23:31:00,84.7,78.6,29.95,ENE,73,13.0,15.0,82,0.00,CLR,,0.00,WeatherDisplay:10.37,2013-08-11 05:31:00,
2013-08-10 23:45:00,84.7,78.6,29.94,ENE,74,10.0,18.0,82,0.00,CLR,,0.00,WeatherDisplay:10.37,2013-08-11 05:45:00,